Terminal Aerodrome Forecast
Issued by NWS Grand Forks, ND

Home | Current Version | Previous Version | Graphics & Text | Print | Product List | Glossary On
Versions: 1 2 3 4 5 6 7 8 9 10 11 12 13 14 15 16
000
FTUS43 KFGF 301728
TAFFAR
TAF
KFAR 301728Z 3018/3118 16015KT P6SM SCT250
     FM302100 17015G23KT P6SM SCT250
     FM310300 18017G23KT P6SM BKN250
     FM311500 20017G27KT P6SM BKN150=

USA.gov is the U.S. government's official web portal to all federal, state and local government web resources and services.